createdAt,value
2022-08-25T00:01:23.804Z,1.08
2022-08-25T00:03:55.180Z,1.00
2022-08-25T00:06:24.313Z,1.10
2022-08-25T00:08:51.670Z,1.10
2022-08-25T00:11:21.008Z,1.13
2022-08-25T00:13:49.773Z,1.20
2022-08-25T00:16:18.092Z,0.95
2022-08-25T00:18:47.081Z,0.90
2022-08-25T00:21:16.159Z,1.10
2022-08-25T00:23:44.651Z,0.70
2022-08-25T00:26:12.303Z,0.70
2022-08-25T00:28:39.750Z,0.70
2022-08-25T00:31:07.801Z,0.77
2022-08-25T00:33:35.113Z,0.68
2022-08-25T00:36:02.405Z,0.70
2022-08-25T00:38:29.690Z,0.80
2022-08-25T00:41:06.299Z,0.65
2022-08-25T00:43:42.651Z,0.95
2022-08-25T00:46:13.929Z,0.70
2022-08-25T00:48:42.765Z,0.88
2022-08-25T00:51:13.392Z,0.80
2022-08-25T00:53:41.459Z,0.93
2022-08-25T00:56:08.789Z,1.13
2022-08-25T00:58:37.200Z,1.30
2022-08-25T01:01:05.764Z,1.02
2022-08-25T01:03:35.745Z,1.05
2022-08-25T01:06:04.256Z,1.20
2022-08-25T01:08:32.296Z,1.10
2022-08-25T01:11:02.548Z,1.30
2022-08-25T01:13:41.172Z,1.10
2022-08-25T01:16:08.670Z,1.08
2022-08-25T01:18:48.033Z,1.10
2022-08-25T01:21:15.989Z,1.20
2022-08-25T01:23:43.319Z,1.20
2022-08-25T01:26:13.195Z,1.05
2022-08-25T01:29:01.305Z,1.30
2022-08-25T01:31:29.420Z,1.17
2022-08-25T01:33:58.397Z,1.40
2022-08-25T01:36:26.225Z,1.50
2022-08-25T01:38:53.490Z,1.27
2022-08-25T01:41:46.908Z,1.50
2022-08-25T01:44:16.148Z,1.42
2022-08-25T01:46:44.417Z,1.10
2022-08-25T01:49:11.979Z,1.23
2022-08-25T01:51:40.610Z,1.40
2022-08-25T01:54:07.915Z,1.52
2022-08-25T01:56:35.337Z,1.13
2022-08-25T01:59:02.579Z,1.23
2022-08-25T02:01:30.388Z,1.40
2022-08-25T02:03:58.369Z,1.45
2022-08-25T02:06:29.821Z,1.40
2022-08-25T02:08:58.690Z,1.48
2022-08-25T02:11:26.413Z,1.35
2022-08-25T02:13:54.168Z,1.65
2022-08-25T02:16:28.329Z,1.70
2022-08-25T02:18:56.121Z,1.40
2022-08-25T02:21:23.724Z,1.33
2022-08-25T02:23:51.196Z,1.27
2022-08-25T02:26:19.939Z,1.25
2022-08-25T02:28:48.553Z,1.45
2022-08-25T02:31:16.513Z,1.23
2022-08-25T02:33:43.941Z,1.10
2022-08-25T02:36:11.316Z,1.23
2022-08-25T02:38:38.831Z,1.10
2022-08-25T02:41:13.805Z,1.08
2022-08-25T02:43:42.084Z,1.25
2022-08-25T02:46:10.063Z,1.65
2022-08-25T02:48:38.000Z,1.05
2022-08-25T02:51:06.531Z,1.20
2022-08-25T02:53:34.391Z,1.15
2022-08-25T02:56:01.738Z,1.20
2022-08-25T02:58:29.097Z,1.10
2022-08-25T03:00:56.746Z,1.02
2022-08-25T03:03:24.175Z,1.00
2022-08-25T03:05:51.491Z,1.25
2022-08-25T03:08:18.889Z,0.98
2022-08-25T03:10:46.178Z,1.25
2022-08-25T03:13:14.742Z,1.10
2022-08-25T03:15:42.582Z,1.25
2022-08-25T03:18:11.735Z,1.23
2022-08-25T03:20:41.351Z,1.00
2022-08-25T03:23:09.013Z,1.15
2022-08-25T03:25:55.289Z,1.08
2022-08-25T03:28:24.924Z,1.05
2022-08-25T03:30:57.461Z,1.00
2022-08-25T03:33:24.718Z,1.30
2022-08-25T03:35:52.004Z,1.42
2022-08-25T03:38:19.270Z,1.60
2022-08-25T03:40:46.523Z,1.70
2022-08-25T03:43:13.809Z,1.83
2022-08-25T03:45:41.693Z,1.60
2022-08-25T03:48:09.032Z,1.55
2022-08-25T03:50:36.337Z,1.55
2022-08-25T03:53:04.034Z,1.40
2022-08-25T03:55:31.280Z,1.45
2022-08-25T03:58:00.005Z,1.35
2022-08-25T04:00:27.497Z,1.27
2022-08-25T04:02:54.886Z,1.50
2022-08-25T04:05:22.177Z,1.40
2022-08-25T04:07:54.037Z,0.88
2022-08-25T04:10:21.481Z,1.00
2022-08-25T04:12:49.384Z,1.35
2022-08-25T04:15:17.197Z,1.52
2022-08-25T04:17:44.472Z,1.10
2022-08-25T04:20:14.079Z,0.80
2022-08-25T04:22:45.178Z,0.82
2022-08-25T04:25:12.654Z,0.80
2022-08-25T04:27:39.979Z,0.60
2022-08-25T04:30:07.648Z,0.88
2022-08-25T04:32:36.396Z,0.70
2022-08-25T04:35:04.384Z,0.60
2022-08-25T04:37:31.733Z,0.45
2022-08-25T04:39:59.028Z,0.50
2022-08-25T04:42:27.059Z,0.50
2022-08-25T04:44:54.649Z,0.60
2022-08-25T04:47:22.139Z,0.50
2022-08-25T04:49:49.429Z,0.50
2022-08-25T04:52:16.773Z,0.30
2022-08-25T04:54:44.937Z,0.10
2022-08-25T04:57:12.196Z,0.20
2022-08-25T04:59:39.611Z,0.22
2022-08-25T05:02:07.289Z,0.22
2022-08-25T05:04:36.263Z,0.28
2022-08-25T05:07:04.075Z,0.13
2022-08-25T05:09:32.646Z,0.30
2022-08-25T05:12:00.529Z,0.20
2022-08-25T05:14:27.956Z,0.30
2022-08-25T05:16:56.797Z,0.17
2022-08-25T05:19:24.358Z,0.20
2022-08-25T05:21:52.078Z,0.20
2022-08-25T05:24:19.899Z,0.30
2022-08-25T05:26:47.324Z,0.10
2022-08-25T05:29:15.639Z,0.20
2022-08-25T05:31:48.255Z,0.20
2022-08-25T05:34:18.866Z,0.30
2022-08-25T05:36:46.438Z,0.38
2022-08-25T05:39:13.820Z,0.30
2022-08-25T05:41:41.224Z,0.40
2022-08-25T05:44:08.604Z,0.40
2022-08-25T05:46:35.889Z,0.40
2022-08-25T05:49:03.563Z,0.60
2022-08-25T05:51:30.986Z,0.50
2022-08-25T05:53:58.280Z,0.57
2022-08-25T05:56:25.568Z,0.52
2022-08-25T05:58:52.885Z,0.47
2022-08-25T06:01:45.243Z,0.40
2022-08-25T06:04:13.237Z,0.40
2022-08-25T06:06:41.078Z,0.40
2022-08-25T06:09:09.645Z,0.50
2022-08-25T06:11:39.755Z,0.50
2022-08-25T06:14:07.610Z,0.60
2022-08-25T06:16:34.967Z,0.60
2022-08-25T06:19:02.397Z,0.50
2022-08-25T06:21:29.892Z,0.50
2022-08-25T06:23:57.424Z,0.50
2022-08-25T06:26:24.914Z,0.40
2022-08-25T06:28:52.723Z,0.40
2022-08-25T06:31:22.271Z,0.40
2022-08-25T06:33:49.869Z,0.30
2022-08-25T06:36:17.378Z,0.25
2022-08-25T06:38:44.693Z,0.30
2022-08-25T06:41:12.716Z,0.40
2022-08-25T06:43:47.332Z,0.50
2022-08-25T06:46:17.676Z,0.40
2022-08-25T06:48:45.164Z,0.55
2022-08-25T06:51:14.030Z,1.17
2022-08-25T06:53:42.822Z,0.52
2022-08-25T06:56:10.218Z,0.40
2022-08-25T06:58:37.824Z,0.50
2022-08-25T07:01:19.748Z,0.50
2022-08-25T07:03:48.332Z,0.70
2022-08-25T07:06:18.254Z,0.70
2022-08-25T07:08:46.412Z,0.77
2022-08-25T07:11:16.211Z,0.60
2022-08-25T07:13:44.051Z,0.73
2022-08-25T07:16:11.652Z,0.75
2022-08-25T07:18:39.088Z,0.70
2022-08-25T07:21:08.853Z,0.80
2022-08-25T07:23:37.075Z,0.73
2022-08-25T07:26:39.428Z,0.70
2022-08-25T07:29:09.632Z,0.60
2022-08-25T07:31:37.782Z,0.70
2022-08-25T07:34:25.605Z,0.90
2022-08-25T07:36:53.715Z,0.95
2022-08-25T07:39:21.977Z,0.77
2022-08-25T07:41:51.885Z,0.80
2022-08-25T07:44:19.976Z,0.98
2022-08-25T07:46:47.288Z,0.90
2022-08-25T07:49:16.760Z,1.25
2022-08-25T07:52:04.185Z,0.95
2022-08-25T07:54:34.230Z,1.00
2022-08-25T07:57:02.018Z,0.70
2022-08-25T07:59:29.318Z,0.90
2022-08-25T08:01:56.804Z,0.80
2022-08-25T08:04:24.905Z,0.77
2022-08-25T08:06:52.153Z,0.80
2022-08-25T08:09:19.400Z,0.88
2022-08-25T08:11:53.828Z,0.88
2022-08-25T08:14:21.839Z,0.70
2022-08-25T08:16:49.662Z,0.70
2022-08-25T08:19:17.905Z,0.63
2022-08-25T08:21:52.494Z,0.63
2022-08-25T08:24:40.542Z,0.70
2022-08-25T08:27:10.693Z,0.60
2022-08-25T08:29:38.993Z,0.80
2022-08-25T08:32:08.003Z,0.57
2022-08-25T08:34:35.474Z,0.60
2022-08-25T08:37:03.337Z,0.50
2022-08-25T08:39:31.089Z,0.68
2022-08-25T08:42:18.518Z,0.70
2022-08-25T08:44:45.825Z,0.50
2022-08-25T08:47:19.237Z,0.50
2022-08-25T08:49:49.602Z,0.47
2022-08-25T08:52:18.950Z,0.50
2022-08-25T08:55:00.866Z,0.50
2022-08-25T08:57:29.500Z,0.60
2022-08-25T09:00:00.648Z,0.60
2022-08-25T09:02:37.865Z,0.40
2022-08-25T09:05:09.010Z,0.60
2022-08-25T09:07:42.258Z,0.50
2022-08-25T09:10:10.599Z,0.88
2022-08-25T09:12:47.531Z,0.80
2022-08-25T09:15:54.827Z,0.90
2022-08-25T09:18:36.784Z,0.60
2022-08-25T09:21:24.584Z,0.70
2022-08-25T09:24:07.248Z,0.50
2022-08-25T09:26:36.177Z,0.90
2022-08-25T09:29:16.216Z,0.80
2022-08-25T09:31:44.345Z,0.70
2022-08-25T09:34:13.663Z,0.55
2022-08-25T09:36:41.552Z,0.80
2022-08-25T09:39:09.878Z,0.70
2022-08-25T09:41:45.740Z,0.80
2022-08-25T09:44:22.274Z,0.60
2022-08-25T09:47:03.666Z,0.70
2022-08-25T09:49:40.580Z,0.50
2022-08-25T09:52:18.113Z,0.70
2022-08-25T09:54:47.769Z,0.98
2022-08-25T09:57:38.526Z,0.57
2022-08-25T10:00:15.313Z,0.90
2022-08-25T10:02:44.048Z,0.73
2022-08-25T10:05:25.005Z,0.70
2022-08-25T10:07:54.117Z,0.63
2022-08-25T10:10:32.507Z,0.80
2022-08-25T10:13:01.681Z,0.85
2022-08-25T10:15:30.739Z,0.80
2022-08-25T10:18:17.606Z,0.98
2022-08-25T10:20:46.705Z,0.70
2022-08-25T10:23:19.974Z,0.95
2022-08-25T10:25:57.772Z,0.93
2022-08-25T10:28:43.829Z,1.00
2022-08-25T10:31:14.227Z,0.95
2022-08-25T10:34:05.044Z,0.95
2022-08-25T10:36:39.556Z,1.00
2022-08-25T10:39:34.550Z,0.85
2022-08-25T10:42:10.724Z,0.80
2022-08-25T10:45:04.325Z,0.60
2022-08-25T10:47:50.455Z,0.90
2022-08-25T10:50:40.315Z,0.65
2022-08-25T10:53:20.627Z,0.60
2022-08-25T10:56:08.533Z,0.60
2022-08-25T10:58:48.216Z,0.55
2022-08-25T11:01:19.904Z,0.57
2022-08-25T11:03:56.550Z,0.80
2022-08-25T11:06:29.138Z,0.40
2022-08-25T11:08:58.691Z,0.50
2022-08-25T11:11:32.189Z,0.60
2022-08-25T11:14:09.312Z,0.60
2022-08-25T11:17:08.093Z,0.52
2022-08-25T11:19:40.758Z,0.57
2022-08-25T11:24:40.341Z,0.50
2022-08-25T11:27:12.421Z,0.45
2022-08-25T11:29:43.548Z,0.60
2022-08-25T11:32:11.358Z,0.63
2022-08-25T11:34:43.481Z,0.60
2022-08-25T11:39:38.847Z,0.50
2022-08-25T11:42:13.599Z,0.50
2022-08-25T11:44:55.757Z,0.40
2022-08-25T11:47:45.539Z,0.50
2022-08-25T11:50:31.751Z,0.30
2022-08-25T11:53:04.197Z,0.40
2022-08-25T11:55:38.625Z,0.40
2022-08-25T11:58:25.340Z,0.20
2022-08-25T12:00:53.213Z,0.30
2022-08-25T12:03:32.810Z,0.30
2022-08-25T12:06:15.058Z,0.10
2022-08-25T12:08:57.639Z,0.20
2022-08-25T12:11:41.735Z,0.20
2022-08-25T12:14:28.082Z,0.20
2022-08-25T12:16:55.795Z,0.20
2022-08-25T12:19:29.717Z,0.20
2022-08-25T12:21:59.264Z,0.30
2022-08-25T12:24:47.575Z,0.20
2022-08-25T12:27:26.781Z,0.30
2022-08-25T12:29:58.341Z,0.28
2022-08-25T12:32:44.278Z,0.20
2022-08-25T12:35:26.505Z,0.40
2022-08-25T12:38:06.292Z,0.30
2022-08-25T12:40:36.912Z,0.50
2022-08-25T12:43:12.315Z,0.55
2022-08-25T12:45:42.454Z,0.55
2022-08-25T12:48:28.231Z,0.50
2022-08-25T12:50:58.724Z,0.50
2022-08-25T12:53:35.692Z,0.32
2022-08-25T12:56:07.726Z,0.40
2022-08-25T12:59:00.128Z,0.50
2022-08-25T13:01:35.768Z,0.45
2022-08-25T13:04:06.491Z,0.50
2022-08-25T13:06:36.573Z,0.70
2022-08-25T13:09:32.385Z,0.70
2022-08-25T13:11:59.659Z,0.60
2022-08-25T13:19:27.683Z,0.50
2022-08-25T13:22:03.668Z,0.40
2022-08-25T13:24:40.249Z,0.40
2022-08-25T13:27:09.575Z,0.47
2022-08-25T13:29:40.769Z,0.50
2022-08-25T13:32:12.650Z,0.65
2022-08-25T13:34:42.841Z,0.50
2022-08-25T13:37:30.428Z,0.60
2022-08-25T13:40:10.239Z,0.60
2022-08-25T13:42:44.281Z,0.70
2022-08-25T13:45:17.082Z,0.60
2022-08-25T13:47:45.748Z,0.60
2022-08-25T13:50:18.145Z,0.60
2022-08-25T13:53:01.326Z,1.00
2022-08-25T13:55:51.236Z,0.82
2022-08-25T13:58:24.573Z,0.98
2022-08-25T14:01:01.525Z,0.73
2022-08-25T14:03:31.739Z,0.70
2022-08-25T14:06:16.057Z,0.70
2022-08-25T14:08:49.233Z,0.45
2022-08-25T14:11:28.134Z,0.50
2022-08-25T14:14:03.070Z,0.40
2022-08-25T14:16:34.821Z,0.50
2022-08-25T14:19:03.561Z,0.60
2022-08-25T14:21:32.164Z,0.40
2022-08-25T14:24:01.897Z,0.60
2022-08-25T14:26:29.162Z,0.60
2022-08-25T14:28:57.870Z,0.68
2022-08-25T14:31:27.903Z,0.60
2022-08-25T14:34:01.648Z,0.50
2022-08-25T14:36:30.268Z,0.55
2022-08-25T14:38:58.180Z,0.65
2022-08-25T14:41:26.571Z,0.60
2022-08-25T14:43:54.180Z,0.63
2022-08-25T14:46:23.436Z,0.70
2022-08-25T14:48:54.538Z,0.70
2022-08-25T14:51:23.867Z,0.60
2022-08-25T14:53:53.208Z,0.70
2022-08-25T14:56:20.535Z,0.47
2022-08-25T14:58:51.083Z,0.65
2022-08-25T15:01:28.545Z,0.70
2022-08-25T15:03:59.167Z,0.60
2022-08-25T15:06:27.019Z,0.50
2022-08-25T15:09:11.573Z,0.60
2022-08-25T15:11:41.795Z,0.50
2022-08-25T15:14:10.809Z,0.50
2022-08-25T15:16:40.149Z,0.60
2022-08-25T15:19:11.459Z,0.90
2022-08-25T15:21:39.497Z,0.70
2022-08-25T15:24:08.779Z,0.70
2022-08-25T15:26:44.459Z,0.50
2022-08-25T15:29:12.273Z,0.57
2022-08-25T15:31:39.964Z,0.50
2022-08-25T15:34:11.709Z,0.50
2022-08-25T15:36:39.688Z,0.60
2022-08-25T15:39:09.405Z,0.50
2022-08-25T15:41:37.873Z,0.40
2022-08-25T15:44:06.741Z,0.57
2022-08-25T15:46:36.498Z,0.40
2022-08-25T15:49:07.927Z,0.35
2022-08-25T15:51:35.376Z,0.40
2022-08-25T15:54:03.604Z,0.43
2022-08-25T15:56:31.345Z,0.30
2022-08-25T15:58:58.760Z,0.40
2022-08-25T16:01:27.718Z,0.40
2022-08-25T16:03:58.089Z,0.50
2022-08-25T16:06:28.356Z,0.60
2022-08-25T16:08:55.688Z,0.55
2022-08-25T16:11:27.717Z,0.80
2022-08-25T16:13:55.927Z,0.80
2022-08-25T16:16:24.695Z,0.60
2022-08-25T16:18:52.591Z,0.60
2022-08-25T16:21:23.445Z,0.80
2022-08-25T16:23:56.770Z,0.60
2022-08-25T16:26:27.205Z,0.95
2022-08-25T16:28:54.854Z,1.35
2022-08-25T16:31:22.477Z,1.20
2022-08-25T16:33:50.870Z,1.60
2022-08-25T16:36:22.488Z,1.63
2022-08-25T16:38:50.945Z,1.58
2022-08-25T16:41:23.748Z,2.00
2022-08-25T16:43:51.831Z,2.22
2022-08-25T16:46:20.517Z,1.80
2022-08-25T16:48:48.803Z,2.25
2022-08-25T16:51:19.278Z,2.67
2022-08-25T16:54:08.916Z,2.05
2022-08-25T16:56:37.332Z,2.42
2022-08-25T16:59:06.253Z,2.13
2022-08-25T17:01:35.402Z,2.17
2022-08-25T17:04:03.413Z,2.45
2022-08-25T17:06:33.933Z,2.97
2022-08-25T17:09:01.224Z,2.40
2022-08-25T17:11:30.255Z,3.00
2022-08-25T17:14:00.717Z,3.33
2022-08-25T17:16:31.371Z,2.47
2022-08-25T17:19:05.344Z,2.90
2022-08-25T17:21:35.607Z,2.83
2022-08-25T17:24:04.859Z,2.25
2022-08-25T17:26:32.281Z,2.40
2022-08-25T17:29:01.344Z,2.13
2022-08-25T17:31:30.056Z,2.22
2022-08-25T17:33:58.169Z,2.28
2022-08-25T17:36:27.312Z,1.65
2022-08-25T17:38:55.107Z,1.90
2022-08-25T17:41:24.966Z,2.15
2022-08-25T17:43:52.397Z,1.60
2022-08-25T17:46:21.167Z,1.30
2022-08-25T17:48:48.536Z,1.20
2022-08-25T17:51:16.457Z,0.90
2022-08-25T17:53:43.920Z,1.02
2022-08-25T17:56:15.847Z,1.10
2022-08-25T17:58:44.018Z,1.10
2022-08-25T18:01:28.518Z,1.20
2022-08-25T18:03:57.387Z,1.33
2022-08-25T18:06:24.923Z,1.23
2022-08-25T18:08:56.282Z,1.60
2022-08-25T18:11:26.459Z,1.35
2022-08-25T18:13:54.065Z,1.75
2022-08-25T18:16:22.253Z,1.90
2022-08-25T18:18:49.762Z,1.85
2022-08-25T18:21:20.345Z,2.17
2022-08-25T18:23:47.861Z,2.33
2022-08-25T18:26:16.271Z,2.63
2022-08-25T18:28:43.890Z,2.92
2022-08-25T18:31:13.192Z,3.03
2022-08-25T18:33:42.193Z,3.10
2022-08-25T18:36:10.376Z,3.40
2022-08-25T18:38:58.203Z,3.22
2022-08-25T18:41:26.192Z,3.25
2022-08-25T18:43:53.856Z,3.65
2022-08-25T18:46:22.528Z,3.95
2022-08-25T18:48:52.641Z,3.90
2022-08-25T18:51:23.303Z,4.68
2022-08-25T18:53:54.566Z,4.05
2022-08-25T18:56:26.706Z,4.30
2022-08-25T18:58:54.085Z,4.45
2022-08-25T19:01:21.686Z,4.03
2022-08-25T19:03:50.305Z,3.83
2022-08-25T19:06:18.015Z,4.13
2022-08-25T19:08:46.570Z,4.70
2022-08-25T19:11:13.844Z,4.47
2022-08-25T19:13:41.464Z,4.75
2022-08-25T19:16:09.693Z,5.10
2022-08-25T19:18:37.434Z,5.20
2022-08-25T19:21:04.775Z,5.53
2022-08-25T19:23:32.646Z,6.05
2022-08-25T19:26:00.985Z,4.55
2022-08-25T19:28:31.797Z,5.00
2022-08-25T19:30:59.606Z,5.00
2022-08-25T19:33:42.597Z,5.50
2022-08-25T19:36:12.385Z,5.50
2022-08-25T19:38:39.974Z,6.60
2022-08-25T19:41:09.377Z,5.93
2022-08-25T19:43:55.573Z,6.20
2022-08-25T19:46:26.136Z,7.10
2022-08-25T19:49:06.911Z,6.22
2022-08-25T19:51:36.006Z,6.10
2022-08-25T19:54:03.335Z,7.38
2022-08-25T19:56:35.081Z,7.53
2022-08-25T19:59:04.076Z,7.30
2022-08-25T20:01:32.238Z,7.40
2022-08-25T20:04:03.505Z,7.53
2022-08-25T20:06:32.199Z,8.23
2022-08-25T20:09:00.752Z,8.57
2022-08-25T20:11:29.185Z,8.30
2022-08-25T20:14:00.338Z,8.27
2022-08-25T20:16:31.000Z,9.23
2022-08-25T20:19:00.215Z,8.77
2022-08-25T20:21:28.308Z,8.68
2022-08-25T20:24:17.077Z,8.70
2022-08-25T20:26:44.314Z,9.20
2022-08-25T20:29:12.858Z,9.77
2022-08-25T20:31:40.191Z,9.55
2022-08-25T20:34:07.889Z,8.93
2022-08-25T20:36:38.805Z,9.02
2022-08-25T20:39:08.323Z,8.68
2022-08-25T20:41:35.971Z,9.23
2022-08-25T20:44:03.816Z,9.57
2022-08-25T20:46:33.880Z,9.63
2022-08-25T20:49:01.519Z,9.00
2022-08-25T20:51:31.022Z,10.05
2022-08-25T20:53:58.376Z,9.00
2022-08-25T20:56:25.672Z,9.15
2022-08-25T20:58:53.124Z,8.90
2022-08-25T21:01:23.026Z,9.55
2022-08-25T21:03:50.999Z,10.65
2022-08-25T21:06:18.291Z,9.93
2022-08-25T21:08:47.038Z,9.73
2022-08-25T21:11:17.889Z,10.52
2022-08-25T21:13:48.890Z,9.82
2022-08-25T21:16:17.889Z,10.48
2022-08-25T21:18:47.993Z,9.93
2022-08-25T21:21:16.456Z,9.27
2022-08-25T21:23:44.964Z,10.80
2022-08-25T21:26:20.031Z,10.05
2022-08-25T21:28:48.034Z,10.20
2022-08-25T21:31:16.200Z,10.48
2022-08-25T21:33:46.067Z,10.27
2022-08-25T21:36:19.493Z,9.93
2022-08-25T21:38:48.489Z,10.43
2022-08-25T21:41:17.716Z,9.57
2022-08-25T21:43:46.364Z,9.25
2022-08-25T21:46:16.943Z,9.88
2022-08-25T21:48:46.614Z,10.85
2022-08-25T21:51:19.209Z,11.02
2022-08-25T21:53:47.269Z,10.35
2022-08-25T21:56:16.210Z,10.73
2022-08-25T21:58:45.793Z,10.55
2022-08-25T22:01:17.863Z,10.75
2022-08-25T22:03:47.601Z,10.40
2022-08-25T22:06:16.323Z,9.93
2022-08-25T22:08:43.833Z,9.25
2022-08-25T22:11:11.431Z,9.93
2022-08-25T22:13:41.202Z,11.15
2022-08-25T22:16:11.887Z,10.53
2022-08-25T22:18:39.988Z,10.80
2022-08-25T22:21:09.730Z,11.10
2022-08-25T22:23:44.088Z,11.25
2022-08-25T22:26:13.965Z,10.70
2022-08-25T22:28:42.063Z,11.00
2022-08-25T22:31:13.324Z,10.40
2022-08-25T22:33:40.704Z,10.82
2022-08-25T22:36:19.225Z,12.05
2022-08-25T22:38:47.600Z,13.15
2022-08-25T22:41:19.011Z,11.77
2022-08-25T22:43:49.208Z,11.73
2022-08-25T22:46:17.256Z,13.57
2022-08-25T22:48:46.176Z,12.88
2022-08-25T22:51:17.872Z,13.13
2022-08-25T22:53:45.991Z,13.25
2022-08-25T22:56:13.988Z,13.27
2022-08-25T22:58:51.696Z,12.65
2022-08-25T23:01:20.860Z,13.45
2022-08-25T23:03:48.258Z,14.13
2022-08-25T23:06:20.769Z,13.13
2022-08-25T23:08:53.556Z,13.23
2022-08-25T23:11:22.216Z,13.68
2022-08-25T23:13:49.636Z,12.55
2022-08-25T23:16:17.547Z,14.32
2022-08-25T23:18:46.856Z,13.15
2022-08-25T23:21:38.009Z,13.85
2022-08-25T23:24:09.074Z,13.35
2022-08-25T23:26:41.856Z,14.20
2022-08-25T23:29:17.899Z,14.30
2022-08-25T23:31:46.412Z,15.10
2022-08-25T23:34:14.016Z,14.38
2022-08-25T23:36:41.547Z,15.15
2022-08-25T23:39:09.840Z,13.45
2022-08-25T23:41:37.299Z,12.77
2022-08-25T23:44:05.494Z,14.32
2022-08-25T23:46:35.178Z,13.65
2022-08-25T23:49:03.283Z,13.73
2022-08-25T23:51:37.164Z,13.68
2022-08-25T23:54:06.402Z,12.80
2022-08-25T23:56:36.721Z,12.82
2022-08-25T23:59:10.734Z,12.98
